English version (google)  Retour à l'accueil Ecrire à l'auteur du site Runraid : Michel Jourdan


 Visitez La Boutique 



Les prochaines courses


Les derniers résultats

cliquez pour visualiser la page complète relatant la chronologie des éruptions du Piton de la Fournaise
éruptions Piton de la Fournaise


Ile de La Réunion

 Diagonale des Fous 

Ecrire au créateur du site : Michel Jourdan
Contact


2020-08-22 - ULTRA 01 60km

Pour consulter le palmarès d'un coureur, un clic sur son nom !

Vous avez des remarques, corrections, ... sur ces résultats , un clic sur --> pour me transmettre toute information concernant les classements


ULTRA 01 60km - 2020 : classement des 140 finishers
Place Nom Temps Cat. Club Sexe Clt/cat.
Place Nom Temps Cat. Club Sexe Clt/cat.
1 BOURGEOIS Ludovic 06:22:33 M0M TEAM LMR/KINETICK M 1361
2 POUZET Stephane 06:25:49 M1M SENS ROUTE TRAIL M 1 M1M 1359
3 RACINET Florian 06:27:06 M2M X BIONIC / SIDAS M 1 M2M 1387
4 VINOT Stephane 06:43:16 M0M M 2 M0M 1384
5 DAUVERGNE Nicolas 06:50:20 M0M M 3 M0M 1377
6 HECQUET Stephane 06:52:08 SEM S/L E. CEYRAT A. M 1 SEM 1378
7 MANSIAT Teddy 06:56:35 M1M LONS ATHLE 39 M 2 M1M 1293
8 BONNET Nicolas 07:06:19 M1M M 3 M1M 1358
9 GOUGEON Bastien 07:11:20 SEM M 2 SEM 1320
10 HIRIGARAY Yann 07:14:53 ESM M 1 ESM 1376
11 GRILLOT Anthony 07:16:14 SEM TEAM TRAIL JURA M 3 SEM 1312
12 TAVERNIER Alexandre 07:19:52 SEM TEAM TRAIL DES CONCHES M 4 SEM 1273
13 GRIFGNEE Christophe 07:24:59 SEM INOV 8 M 5 SEM 1398
14 CANTENOT Gael 07:31:53 SEM M 6 SEM 1260
15 CHARBONNEL Pierre Antoine 07:41:04 M0M NORTH RUN TEAM M 4 M0M 1401
16 LAMBERT Damien 07:43:59 M0M M 5 M0M 1341
17 PROTIN Alexandre 07:46:41 SEM M 7 SEM 1393
18 CHAPUIS Alain 07:49:42 M3M M 1 M3M 1319
19 SAINGIER Valentin 07:51:09 SEM M 8 SEM 1402
20 LEBRAY David 07:51:09 M2M TEAM AP'HeROS/OFF AUFFARG M 2 M2M 1400
21 CAVIGLIA Jerome 07:52:05 M0M ATEMIA M 6 M0M 1379
22 MOREL Stephane 07:52:15 SEM OZARM/WGTN/MIELTONIA M 9 SEM 1347
23 SCHUEHMACHER Cyril 07:53:19 SEM LA FORESTIeRE M 10 SEM 1353
24 ROBBE Caroline 07:53:47 M0F SENS ROUTE TRAIL F 1ere F 1363
25 PESME Romain 07:56:08 SEM M 11 SEM 1290
26 DE JACQUELOT Laure 07:57:40 SEF F 2 F 1388
27 BENOIT Forgerit 07:57:57 M0M M 7 M0M 1285
28 BRUGIERE Yann 07:58:28 M0M GIGIDAG CLUB M 8 M0M 1395
29 JEANDET Marion 07:58:40 ESF F 3 F 1310
30 GENTILS Johnny 08:03:22 M1M S/L VAL MORTEAU ATHLETISM M 4 M1M 1375
31 CHOIX Nicolas 08:05:56 SEM M 12 SEM 1291
32 GARNIER Marc 08:09:38 M0M TAKTIK SPORT M 9 M0M 1343
33 SORDEL Mickael 08:11:18 M0M M 10 M0M 1299
34 DESPLACES Gaetan 08:14:30 M0M TEAM ZeRO VOLONTe M 11 M0M 1368
35 PROCUREUR Henri 08:14:31 M0M M 12 M0M 1279
36 BERNIER Julien 08:16:34 SEM M 13 SEM 1329
37 CHAUVIN Alexandre 08:16:36 M1M M 5 M1M 1390
38 PINNA Fabrice 08:19:31 M0M M 13 M0M 1370
39 RABEYRIN Jean Pierre 08:22:14 M4M M 1 M4M 1369
40 SMET Flavien 08:25:48 M0M M 14 M0M 1311
41 AVRILLON Matis 08:26:26 ESM M 2 ESM 1380
42 DOKOUTCHAEF Sebastien 08:30:02 M2M LA RAYE M 3 M2M 1391
43 RYAN Webster 08:30:05 SEM M 14 SEM 1330
44 BRUGIERE Steeve 08:30:40 M0M ASVEL TRI M 15 M0M 1394
45 CUCHE Jerome 08:32:23 M1M M 6 M1M 1333
46 LE MONS Thomas 08:32:42 M0M BROCELIANDE AVENTURE M 16 M0M 1314
47 RADERMECKER Nicolas 08:33:19 M0M FLEURS ATHLeTISME M 17 M0M 1386
48 PASQUIER Mickael 08:33:27 SEM M 15 SEM 1365
49 MICHEL Christine 08:38:58 M1F CLUB MULTI SPORTS DE PANT F 4 F 1389
50 COUTIER Patrick 08:39:14 M2M M 4 M2M 1382
51 MEUNIER Thomas 08:41:43 M0M M 18 M0M 1338
52 LAMBERTY Julien 08:46:07 SEM RAACE M 16 SEM 1362
53 ALEXANDRE Nicolas 08:48:00 M2M RUN AND FREEDOM M 5 M2M 1392
54 AMBLARD Alexandre 08:49:29 M1M M 7 M1M 1278
55 ERRERO Gaetan 08:55:37 M2M RUN VALSERINE M 6 M2M 1270
56 GAUDILLIERE LE DAIN Gwenaelle 08:55:53 SEF F 5 F 1371
57 VERNA Julien 08:56:45 M0M EA MACON M 19 M0M 1313
58 MONCHARMONT Philippe 08:58:21 M3M M 2 M3M 1265
59 MOUNIER Florian 09:00:14 SEM M 17 SEM 1337
60 SAUTENET Anais 09:00:25 SEF DOLE AC F 1269
61 BUISSON Marc 09:00:58 SEM TEAM TRAIL DES CONCHES M 18 SEM 1266
62 GUDEFIN Jerome 09:05:46 M1M M 8 M1M 1288
63 GARAND Jean Francois 09:07:07 M5M M 1 M5M 1289
64 FERRARO Antoine 09:09:09 M4M M 2 M4M 1350
65 MAZILLE Gregory 09:09:09 M3M M 3 M3M 1351
66 BARTHELEMY Jean Francois 09:09:14 M3M VIRIAT MARATHON M 4 M3M 1334
67 LAUDREN Gilles 09:11:51 M4M TEAM GLOBETRAILERS M 3 M4M 1339
68 LEJEUNE Bernard 09:14:56 M2M SPA/FHT M 7 M2M 1399
69 JAUME Alain 09:15:24 M3M BAGNOLS MARCOULE ATHLETIS M 5 M3M 1308
70 VANCON Olivier 09:16:56 M4M M 4 M4M 1367
71 ROY Lyonnel 09:17:20 M3M M 6 M3M 1336
72 PERON Jonathan 09:18:07 M0M M 20 M0M 1322
73 MILLIROUX Philippe 09:19:37 M0M COP'AIN TRAIL M 21 M0M 1385
74 BERTHIER Florian 09:20:28 M0M M 22 M0M 1327
75 LE VAN Alexandre 09:21:41 M1M CTU M 9 M1M 1261
76 CHRISTOPHE Eric 09:23:09 M3M M 7 M3M 1295
77 PELLETIER Julien 09:25:40 SEM M 19 SEM 1397
78 DE LA SERRAZ Tanguy 09:35:46 SEM RUNNING YOGIS M 20 SEM 1352
79 VILLETTE Frederic 09:41:37 M2M S/L DUCLAIR LE TRAIT ATHL M 8 M2M 1294
80 PUSSET Laurent 09:42:05 M2M RENAULT TRUCKS M 9 M2M 1318
81 FRANCOIS Fanuel 09:42:54 M0M M 23 M0M 1297
82 CORMORECHE Jean Christophe 09:49:11 M1M COURIR EN DOMBES M 10 M1M 1255
83 GALEA Arnaud 09:53:20 SEM M 21 SEM 1286
84 VALLAT Olivier 09:53:20 SEM FONFON 69 M 22 SEM 1300
85 KUENTZ Fred 09:54:52 M3M M 8 M3M 1259
86 FAGOT Sylvain 09:55:03 M3M M 9 M3M 1256
87 RICHALET Gerard 09:58:28 M4M HUMBECOURT M 5 M4M 1356
88 SPANNEUT Sebastien 10:00:48 M2M MONTS ET COLLINES M 10 M2M 1251
89 MONNET BESSON Damien 10:01:28 M1M JUDO CLUB HAUT BUGEY M 11 M1M 1346
90 BROSSAIS Jerome 10:01:32 M1M M 12 M1M 1282
91 FAIVRE Emmanuel 10:01:32 M0M M 24 M0M 1284
92 HENQUINET Jacques 10:01:42 M3M 6H15 DE SOISSONS M 10 M3M 1306
93 AGRANIER Mathieu 10:05:36 M1M M 13 M1M 1340
94 PRIMAULT Sebastien 10:05:53 M2M M 11 M2M 1253
95 LEYRE Mathieu 10:07:09 M0M M 25 M0M 1292
96 CERVASI Philippe 10:11:09 M4M TEAM SCH?FER COACHING M 6 M4M 1360
97 BONNEVIALLE Christophe 10:11:09 M3M SANG POUR SANG SPORT M 11 M3M 1348
98 ECHALLIER Thomas 10:14:08 SEM M 23 SEM 1317
99 WITSCHGER Jean Christophe 10:14:08 M3M M 12 M3M 1381
100 ANDRIEUX Philippe 10:18:24 M0M M 26 M0M 1316
101 BODIN Gilles 10:18:53 M3M M 13 M3M 1364
102 AJANA Saadia 10:19:13 M0F XRUN CLUB F 1429
103 GERIZIER Jonathan 10:21:58 M0M M 27 M0M 1271
104 SIMONET Thomas 10:22:33 SEM M 24 SEM 1373
105 FREVILLE Jean Marie 10:24:15 M0M M 28 M0M 1355
106 SEGUIN Remy 10:25:00 M2M CORCY ENDURENCE M 12 M2M 1372
107 MARGUERITTE Florence 10:28:45 M0F GRAND FOND BRESSAN F 1357
108 DESPICHT Yann 10:34:49 SEM M 25 SEM 1257
109 MOISAN Romain 10:36:10 M0M 73R M 29 M0M 1264
110 TABOURET Marc 10:37:30 SEM M 26 SEM 1374
111 CHABERT Julien 10:38:13 M0M GRAND FOND BRESSAN M 30 M0M 1349
112 SIMONIN Yohan 10:51:49 SEM TEAM TRAIL JURA M 27 SEM 1283
113 FLEURY Guillaume 10:53:39 SEM BRESSE SAONE RUNNING M 28 SEM 1267
114 GUIHENEUF Laurent 10:54:27 M2M M 13 M2M 1272
115 SIGAUD Maxime 10:55:54 SEM M 29 SEM 1325
116 RESLINGER Johnny 10:57:13 M5M COURIR A SAINT GERVAIS M 2 M5M 1366
117 LAMBERT Aurelien 11:02:44 M2M M 14 M2M 1403
118 ASSET Sebastien 11:08:47 M2M M 15 M2M 1303
119 BOURBON Christian 11:15:28 M7M TDR BOURGOIN / ARSL ROCHE M 1 M7M 1252
120 GONNET Veronique 11:20:52 M4F F 1263
121 GONNET Eric 11:20:52 M5M M 3 M5M 1262
122 SIGAUD Philippe 11:24:57 M5M M 4 M5M 1324
123 MARLIER David 11:27:24 M4M BC SAIVE M 7 M4M 1332
124 GUTIERREZ Mickael 11:29:23 M0M M 31 M0M 1280
125 TORNIER Celine 11:34:42 M1F RUN VALSERINE F 1342
126 SCHLESSER Yann 11:36:46 M2M M 16 M2M 1315
127 VAN DER PUTTEN Herve 11:53:41 M0M OLYMPIA LONDERZEEL M 32 M0M 1275
128 BILS Bruno 11:53:41 M0M FLOP TEAM M 33 M0M 1274
129 LAVENANT Boris 11:56:58 M1M M 14 M1M 1276
130 RIBOUT Michel 11:57:36 M5M M 5 M5M 1396
131 LEFEVRE Sebastien 12:06:26 SEM EA CREIL M 30 SEM 1331
132 VAUCELLES Guillaume 12:08:39 SEM M 31 SEM 1344
133 RIGAULT Mickael 12:08:43 M0M US THOUARS M 34 M0M 1345
134 CHALAPHIE Guillaume 12:11:08 M0M TEAM NEW HORIZON M 35 M0M 1287
135 VUILLOT Christophe 12:18:26 M2M M 17 M2M 1321
136 LANGE Giovanni 12:21:22 M1M M 15 M1M 1305
137 ARNAUD Claude 12:26:31 M3M M 14 M3M 1309
138 ARNAUD Jean Louis 12:26:32 M5M OIS'EAU LIBRE M 6 M5M 1307
139 GUEST Michel 13:27:02 M5M TEAM NEW HORIZON M 7 M5M 1268
140 BERTHIN Celine 17:19:36 M0F F 1383


ReferencementCe site est listé dans la catégorie Sport : Sports extrêmes Dictionnaire
| Accueil | La Réunion  Vue du ciel | Météo | Cyclones | Volcan | Cirques de Mafate , Cilaos , Salazie | Photos Randonnées | Randonnées Réunion: Randos Espiègle , Courses montagne | Diagonale des Fous |  Marathon des Sables | Voyages Les stats du site | Fonds écran | Plan du site | Blog de runraid | Galerie photos Sport Réunion |